sensor_id;sensor_type;location;lat;lon;timestamp;pressure;altitude;pressure_sealevel;temperature;humidity
48035;BME280;33812;46.480;6.834;2023-12-04T00:01:22;93615.16;;;20.90;35.99
48035;BME280;33812;46.480;6.834;2023-12-04T00:05:25;93607.31;;;20.88;36.00
48035;BME280;33812;46.480;6.834;2023-12-04T00:09:27;93601.00;;;20.88;35.91
48035;BME280;33812;46.480;6.834;2023-12-04T00:13:29;93599.56;;;20.83;36.00
48035;BME280;33812;46.480;6.834;2023-12-04T00:17:32;93591.50;;;20.89;35.82
48035;BME280;33812;46.480;6.834;2023-12-04T00:21:33;93587.53;;;20.90;35.68
48035;BME280;33812;46.480;6.834;2023-12-04T00:25:35;93576.03;;;20.92;35.67
48035;BME280;33812;46.480;6.834;2023-12-04T00:29:37;93571.28;;;20.92;35.50
48035;BME280;33812;46.480;6.834;2023-12-04T00:33:40;93572.06;;;20.93;35.52
48035;BME280;33812;46.480;6.834;2023-12-04T00:37:42;93567.66;;;20.95;35.53
48035;BME280;33812;46.480;6.834;2023-12-04T00:41:44;93547.09;;;20.83;35.46
48035;BME280;33812;46.480;6.834;2023-12-04T00:45:45;93526.84;;;20.86;35.25
48035;BME280;33812;46.480;6.834;2023-12-04T00:49:48;93526.84;;;20.86;35.22
48035;BME280;33812;46.480;6.834;2023-12-04T00:53:50;93524.53;;;20.85;35.10
48035;BME280;33812;46.480;6.834;2023-12-04T00:57:52;93502.44;;;20.85;35.22
48035;BME280;33812;46.480;6.834;2023-12-04T01:01:53;93507.97;;;20.85;34.96
48035;BME280;33812;46.480;6.834;2023-12-04T01:05:56;93501.22;;;20.86;35.00
48035;BME280;33812;46.480;6.834;2023-12-04T01:09:58;93507.06;;;20.88;34.71
48035;BME280;33812;46.480;6.834;2023-12-04T01:14:00;93520.88;;;20.88;35.03
48035;BME280;33812;46.480;6.834;2023-12-04T01:18:02;93505.22;;;20.85;34.89
48035;BME280;33812;46.480;6.834;2023-12-04T01:22:05;93500.34;;;20.89;34.99
48035;BME280;33812;46.480;6.834;2023-12-04T01:26:07;93499.13;;;20.90;34.85
48035;BME280;33812;46.480;6.834;2023-12-04T01:30:10;93515.13;;;20.82;34.73
48035;BME280;33812;46.480;6.834;2023-12-04T01:34:12;93506.63;;;20.89;34.74
48035;BME280;33812;46.480;6.834;2023-12-04T01:38:15;93510.28;;;20.86;34.88
48035;BME280;33812;46.480;6.834;2023-12-04T01:42:17;93512.16;;;20.89;34.63
48035;BME280;33812;46.480;6.834;2023-12-04T01:46:19;93515.38;;;20.88;34.66
48035;BME280;33812;46.480;6.834;2023-12-04T01:50:21;93512.16;;;20.89;34.55
48035;BME280;33812;46.480;6.834;2023-12-04T01:54:25;93507.75;;;20.92;34.51
48035;BME280;33812;46.480;6.834;2023-12-04T01:58:27;93509.50;;;20.86;34.64
48035;BME280;33812;46.480;6.834;2023-12-04T02:02:29;93507.84;;;20.88;34.60
48035;BME280;33812;46.480;6.834;2023-12-04T02:06:31;93506.63;;;20.89;34.48
48035;BME280;33812;46.480;6.834;2023-12-04T02:10:35;93522.88;;;20.87;34.41
48035;BME280;33812;46.480;6.834;2023-12-04T02:14:37;93502.00;;;20.86;34.30
48035;BME280;33812;46.480;6.834;2023-12-04T02:18:39;93502.44;;;20.85;34.49
48035;BME280;33812;46.480;6.834;2023-12-04T02:22:41;93486.75;;;20.82;34.59
48035;BME280;33812;46.480;6.834;2023-12-04T02:26:47;93479.13;;;20.86;34.42
48035;BME280;33812;46.480;6.834;2023-12-04T02:30:51;93466.19;;;20.83;34.42
48035;BME280;33812;46.480;6.834;2023-12-04T02:34:54;93464.66;;;20.82;34.64
48035;BME280;33812;46.480;6.834;2023-12-04T02:38:56;93453.28;;;20.80;34.54
48035;BME280;33812;46.480;6.834;2023-12-04T02:43:00;93453.41;;;20.76;34.66
48035;BME280;33812;46.480;6.834;2023-12-04T02:47:02;93444.66;;;20.77;34.64
48035;BME280;33812;46.480;6.834;2023-12-04T02:51:07;93443.56;;;20.75;34.65
48035;BME280;33812;46.480;6.834;2023-12-04T02:55:08;93445.13;;;20.76;34.57
48035;BME280;33812;46.480;6.834;2023-12-04T02:59:11;93436.50;;;20.74;34.49
48035;BME280;33812;46.480;6.834;2023-12-04T03:03:13;93424.81;;;20.70;34.45
48035;BME280;33812;46.480;6.834;2023-12-04T03:07:15;93429.44;;;20.73;34.42
48035;BME280;33812;46.480;6.834;2023-12-04T03:11:20;93423.56;;;20.71;34.48
48035;BME280;33812;46.480;6.834;2023-12-04T03:15:23;93415.19;;;20.74;34.49
48035;BME280;33812;46.480;6.834;2023-12-04T03:19:25;93407.34;;;20.73;34.31
48035;BME280;33812;46.480;6.834;2023-12-04T03:23:27;93397.06;;;20.73;34.54
48035;BME280;33812;46.480;6.834;2023-12-04T03:27:29;93397.72;;;20.77;34.22
48035;BME280;33812;46.480;6.834;2023-12-04T03:31:32;93386.16;;;20.70;34.06
48035;BME280;33812;46.480;6.834;2023-12-04T03:35:34;93396.41;;;20.69;34.30
48035;BME280;33812;46.480;6.834;2023-12-04T03:39:36;93398.94;;;20.76;34.19
48035;BME280;33812;46.480;6.834;2023-12-04T03:43:38;93397.19;;;20.70;34.15
48035;BME280;33812;46.480;6.834;2023-12-04T03:47:41;93392.75;;;20.72;34.06
48035;BME280;33812;46.480;6.834;2023-12-04T03:51:43;93389.03;;;20.66;34.30
48035;BME280;33812;46.480;6.834;2023-12-04T03:55:44;93377.53;;;20.68;34.35
48035;BME280;33812;46.480;6.834;2023-12-04T03:59:46;93383.56;;;20.75;34.05
48035;BME280;33812;46.480;6.834;2023-12-04T04:03:49;93373.44;;;20.72;34.13
48035;BME280;33812;46.480;6.834;2023-12-04T04:07:51;93381.59;;;20.76;34.04
48035;BME280;33812;46.480;6.834;2023-12-04T04:11:53;93366.69;;;20.73;34.00
48035;BME280;33812;46.480;6.834;2023-12-04T04:15:54;93369.00;;;20.75;33.88
48035;BME280;33812;46.480;6.834;2023-12-04T04:19:57;93357.84;;;20.78;34.01
48035;BME280;33812;46.480;6.834;2023-12-04T04:23:59;93359.50;;;20.76;34.24
48035;BME280;33812;46.480;6.834;2023-12-04T04:28:01;93351.66;;;20.74;34.13
48035;BME280;33812;46.480;6.834;2023-12-04T04:32:03;93350.44;;;20.75;34.34
48035;BME280;33812;46.480;6.834;2023-12-04T04:36:09;93353.88;;;20.80;33.91
48035;BME280;33812;46.480;6.834;2023-12-04T04:40:11;93348.56;;;20.72;33.87
48035;BME280;33812;46.480;6.834;2023-12-04T04:44:13;93356.28;;;20.77;33.86
48035;BME280;33812;46.480;6.834;2023-12-04T04:48:14;93359.50;;;20.76;33.89
48035;BME280;33812;46.480;6.834;2023-12-04T04:52:17;93363.38;;;20.78;33.65
48035;BME280;33812;46.480;6.834;2023-12-04T04:56:19;93374.72;;;20.81;33.87
48035;BME280;33812;46.480;6.834;2023-12-04T05:00:22;93346.34;;;20.80;33.83
48035;BME280;33812;46.480;6.834;2023-12-04T05:04:24;93318.63;;;20.84;33.64
48035;BME280;33812;46.480;6.834;2023-12-04T05:08:27;93306.00;;;20.83;33.67
48035;BME280;33812;46.480;6.834;2023-12-04T05:12:28;93308.13;;;20.78;33.79
48035;BME280;33812;46.480;6.834;2023-12-04T05:16:30;93306.34;;;20.85;33.52
48035;BME280;33812;46.480;6.834;2023-12-04T05:20:32;93278.38;;;20.83;33.65
48035;BME280;33812;46.480;6.834;2023-12-04T05:24:35;93293.44;;;20.82;33.59
48035;BME280;33812;46.480;6.834;2023-12-04T05:28:37;93300.03;;;20.84;33.64
48035;BME280;33812;46.480;6.834;2023-12-04T05:32:39;93268.25;;;20.80;33.57
48035;BME280;33812;46.480;6.834;2023-12-04T05:36:40;93258.56;;;20.75;33.64
48035;BME280;33812;46.480;6.834;2023-12-04T05:40:44;93291.25;;;20.76;33.47
48035;BME280;33812;46.480;6.834;2023-12-04T05:44:45;93288.81;;;20.78;33.56
48035;BME280;33812;46.480;6.834;2023-12-04T05:48:47;93298.19;;;20.81;33.69
48035;BME280;33812;46.480;6.834;2023-12-04T05:52:50;93291.63;;;20.88;33.25
48035;BME280;33812;46.480;6.834;2023-12-04T05:56:53;93285.31;;;20.87;32.96
48035;BME280;33812;46.480;6.834;2023-12-04T06:00:54;93276.50;;;20.93;33.26
48035;BME280;33812;46.480;6.834;2023-12-04T06:04:56;93279.13;;;20.96;33.56
48035;BME280;33812;46.480;6.834;2023-12-04T06:08:58;93254.84;;;20.07;34.65
48035;BME280;33812;46.480;6.834;2023-12-04T06:13:01;93266.56;;;20.95;33.62
48035;BME280;33812;46.480;6.834;2023-12-04T06:17:03;93249.00;;;20.89;33.39
48035;BME280;33812;46.480;6.834;2023-12-04T06:21:07;93242.50;;;20.83;33.27
48035;BME280;33812;46.480;6.834;2023-12-04T06:25:10;93217.16;;;20.97;33.39
48035;BME280;33812;46.480;6.834;2023-12-04T06:29:14;93212.75;;;20.87;33.38
48035;BME280;33812;46.480;6.834;2023-12-04T06:33:16;93220.28;;;20.86;33.61
48035;BME280;33812;46.480;6.834;2023-12-04T06:37:21;93224.44;;;20.91;33.37
48035;BME280;33812;46.480;6.834;2023-12-04T06:41:24;93214.53;;;20.81;33.96
48035;BME280;33812;46.480;6.834;2023-12-04T06:45:28;93220.41;;;20.83;33.76
48035;BME280;33812;46.480;6.834;2023-12-04T06:49:32;93214.25;;;20.78;33.70
48035;BME280;33812;46.480;6.834;2023-12-04T06:53:34;93212.44;;;20.85;33.68
48035;BME280;33812;46.480;6.834;2023-12-04T06:57:36;93187.56;;;20.85;33.58
48035;BME280;33812;46.480;6.834;2023-12-04T07:01:39;93201.97;;;20.80;33.52
48035;BME280;33812;46.480;6.834;2023-12-04T07:05:41;93169.41;;;20.74;33.60
48035;BME280;33812;46.480;6.834;2023-12-04T07:09:42;93200.81;;;20.90;33.77
48035;BME280;33812;46.480;6.834;2023-12-04T07:13:44;93228.06;;;21.01;32.18
48035;BME280;33812;46.480;6.834;2023-12-04T07:17:47;93237.22;;;20.75;32.28
48035;BME280;33812;46.480;6.834;2023-12-04T07:21:49;93202.88;;;20.76;32.50
48035;BME280;33812;46.480;6.834;2023-12-04T07:25:51;93167.09;;;20.73;32.55
48035;BME280;33812;46.480;6.834;2023-12-04T07:29:53;93224.84;;;20.80;32.56
48035;BME280;33812;46.480;6.834;2023-12-04T07:33:56;93224.38;;;20.82;32.56
48035;BME280;33812;46.480;6.834;2023-12-04T07:38:00;93232.84;;;20.87;32.58
48035;BME280;33812;46.480;6.834;2023-12-04T07:42:04;93184.50;;;20.83;33.13
48035;BME280;33812;46.480;6.834;2023-12-04T07:46:06;93207.44;;;20.93;32.83
48035;BME280;33812;46.480;6.834;2023-12-04T07:50:10;93221.91;;;20.97;32.70
48035;BME280;33812;46.480;6.834;2023-12-04T07:54:12;93207.63;;;20.98;32.69
48035;BME280;33812;46.480;6.834;2023-12-04T07:58:15;93201.78;;;20.96;32.52
48035;BME280;33812;46.480;6.834;2023-12-04T08:02:16;93188.94;;;21.02;32.61
48035;BME280;33812;46.480;6.834;2023-12-04T08:06:19;93174.69;;;21.04;32.51
48035;BME280;33812;46.480;6.834;2023-12-04T08:10:21;93148.50;;;21.18;32.42
48035;BME280;33812;46.480;6.834;2023-12-04T08:14:24;93148.44;;;21.09;32.56
48035;BME280;33812;46.480;6.834;2023-12-04T08:18:27;93170.03;;;21.23;32.35
48035;BME280;33812;46.480;6.834;2023-12-04T08:22:30;93173.25;;;21.22;32.28
48035;BME280;33812;46.480;6.834;2023-12-04T08:26:32;93182.44;;;21.19;32.23
48035;BME280;33812;46.480;6.834;2023-12-04T08:30:34;93184.09;;;21.16;32.39
48035;BME280;33812;46.480;6.834;2023-12-04T08:34:35;93203.78;;;21.18;32.34
48035;BME280;33812;46.480;6.834;2023-12-04T08:38:39;93214.63;;;21.12;32.40
48035;BME280;33812;46.480;6.834;2023-12-04T08:42:40;93236.09;;;21.08;32.33
48035;BME280;33812;46.480;6.834;2023-12-04T08:46:43;93245.59;;;21.07;32.65
48035;BME280;33812;46.480;6.834;2023-12-04T08:50:45;93224.09;;;21.02;32.80
48035;BME280;33812;46.480;6.834;2023-12-04T08:54:48;93225.94;;;21.05;34.06
48035;BME280;33812;46.480;6.834;2023-12-04T08:58:50;93205.16;;;21.23;33.73
48035;BME280;33812;46.480;6.834;2023-12-04T09:02:52;93205.44;;;21.16;33.81
48035;BME280;33812;46.480;6.834;2023-12-04T09:06:54;93217.66;;;21.05;33.84
48035;BME280;33812;46.480;6.834;2023-12-04T09:10:57;93214.59;;;21.03;34.41
48035;BME280;33812;46.480;6.834;2023-12-04T09:14:58;93204.94;;;21.08;34.43
48035;BME280;33812;46.480;6.834;2023-12-04T09:19:00;93200.94;;;21.09;34.21
48035;BME280;33812;46.480;6.834;2023-12-04T09:23:02;93163.81;;;21.10;34.28
48035;BME280;33812;46.480;6.834;2023-12-04T09:27:05;93154.03;;;21.18;34.41
48035;BME280;33812;46.480;6.834;2023-12-04T09:31:08;93144.03;;;21.21;34.13
48035;BME280;33812;46.480;6.834;2023-12-04T09:35:10;93154.94;;;21.15;34.04
48035;BME280;33812;46.480;6.834;2023-12-04T09:39:12;93160.47;;;21.15;34.25
48035;BME280;33812;46.480;6.834;2023-12-04T09:43:16;93156.19;;;21.23;34.02
48035;BME280;33812;46.480;6.834;2023-12-04T09:47:20;93170.16;;;21.20;33.77
48035;BME280;33812;46.480;6.834;2023-12-04T09:51:22;93174.75;;;21.23;33.85
48035;BME280;33812;46.480;6.834;2023-12-04T09:55:25;93172.66;;;21.27;33.95
48035;BME280;33812;46.480;6.834;2023-12-04T09:59:29;93184.47;;;21.28;33.71
48035;BME280;33812;46.480;6.834;2023-12-04T10:03:32;93185.69;;;21.26;33.83
48035;BME280;33812;46.480;6.834;2023-12-04T10:07:34;93178.38;;;21.33;33.53
48035;BME280;33812;46.480;6.834;2023-12-04T10:11:39;93181.41;;;21.35;33.58
48035;BME280;33812;46.480;6.834;2023-12-04T10:15:47;93197.38;;;21.31;33.45
48035;BME280;33812;46.480;6.834;2023-12-04T10:20:04;93178.66;;;21.35;33.24
48035;BME280;33812;46.480;6.834;2023-12-04T10:24:11;93174.03;;;21.32;33.54
48035;BME280;33812;46.480;6.834;2023-12-04T10:28:13;93180.66;;;21.34;33.29
48035;BME280;33812;46.480;6.834;2023-12-04T10:32:19;93168.88;;;21.43;33.10
48035;BME280;33812;46.480;6.834;2023-12-04T10:36:22;93171.00;;;21.39;33.29
48035;BME280;33812;46.480;6.834;2023-12-04T10:40:24;93166.06;;;21.34;33.34
48035;BME280;33812;46.480;6.834;2023-12-04T10:44:26;93164.09;;;21.34;33.39
48035;BME280;33812;46.480;6.834;2023-12-04T10:48:31;93155.94;;;21.40;33.35
48035;BME280;33812;46.480;6.834;2023-12-04T10:52:33;93147.66;;;21.40;33.28
48035;BME280;33812;46.480;6.834;2023-12-04T10:56:36;93143.38;;;21.39;33.25
48035;BME280;33812;46.480;6.834;2023-12-04T11:00:42;93135.72;;;21.43;33.32
48035;BME280;33812;46.480;6.834;2023-12-04T11:04:48;93135.84;;;21.40;33.13
48035;BME280;33812;46.480;6.834;2023-12-04T11:08:53;93126.00;;;21.38;33.36
48035;BME280;33812;46.480;6.834;2023-12-04T11:13:00;93108.53;;;21.42;33.15
48035;BME280;33812;46.480;6.834;2023-12-04T11:17:05;93117.13;;;21.44;33.13
48035;BME280;33812;46.480;6.834;2023-12-04T11:21:13;93108.69;;;21.47;32.97
48035;BME280;33812;46.480;6.834;2023-12-04T11:25:17;93108.22;;;21.49;33.03
48035;BME280;33812;46.480;6.834;2023-12-04T11:29:19;93100.69;;;21.49;33.00
48035;BME280;33812;46.480;6.834;2023-12-04T11:33:23;93099.03;;;21.52;32.88
48035;BME280;33812;46.480;6.834;2023-12-04T11:37:26;93095.50;;;21.52;32.80
48035;BME280;33812;46.480;6.834;2023-12-04T11:41:29;93092.22;;;21.44;32.95
48035;BME280;33812;46.480;6.834;2023-12-04T11:45:32;93081.06;;;21.57;32.72
48035;BME280;33812;46.480;6.834;2023-12-04T11:49:35;93073.69;;;21.54;32.81
48035;BME280;33812;46.480;6.834;2023-12-04T11:53:39;93058.16;;;21.47;32.91
48035;BME280;33812;46.480;6.834;2023-12-04T11:57:41;93065.22;;;21.48;32.79
48035;BME280;33812;46.480;6.834;2023-12-04T12:01:43;93048.63;;;21.48;32.89
48035;BME280;33812;46.480;6.834;2023-12-04T12:05:45;93042.97;;;21.52;32.86
48035;BME280;33812;46.480;6.834;2023-12-04T12:09:50;93035.72;;;21.54;32.96
48035;BME280;33812;46.480;6.834;2023-12-04T12:13:53;93022.69;;;21.55;32.73
48035;BME280;33812;46.480;6.834;2023-12-04T12:17:54;93020.69;;;21.55;32.63
48035;BME280;33812;46.480;6.834;2023-12-04T12:21:56;93013.47;;;21.58;32.76
48035;BME280;33812;46.480;6.834;2023-12-04T12:26:00;93007.34;;;21.54;32.88
48035;BME280;33812;46.480;6.834;2023-12-04T12:30:02;93020.06;;;21.51;32.59
48035;BME280;33812;46.480;6.834;2023-12-04T12:34:04;93014.41;;;21.55;32.63
48035;BME280;33812;46.480;6.834;2023-12-04T12:38:06;93004.25;;;21.52;32.78
48035;BME280;33812;46.480;6.834;2023-12-04T12:42:10;92996.88;;;21.48;32.81
48035;BME280;33812;46.480;6.834;2023-12-04T12:46:11;92970.59;;;21.44;32.73
48035;BME280;33812;46.480;6.834;2023-12-04T12:50:15;92971.34;;;21.35;32.77
48035;BME280;33812;46.480;6.834;2023-12-04T12:54:16;92966.16;;;21.37;32.72
48035;BME280;33812;46.480;6.834;2023-12-04T12:58:19;92976.28;;;21.40;32.80
48035;BME280;33812;46.480;6.834;2023-12-04T13:02:22;92950.34;;;21.37;32.59
48035;BME280;33812;46.480;6.834;2023-12-04T13:06:24;92953.09;;;21.37;33.12
48035;BME280;33812;46.480;6.834;2023-12-04T13:10:25;92946.34;;;21.29;32.92
48035;BME280;33812;46.480;6.834;2023-12-04T13:14:29;92946.06;;;21.36;33.45
48035;BME280;33812;46.480;6.834;2023-12-04T13:18:31;92952.47;;;21.33;33.15
48035;BME280;33812;46.480;6.834;2023-12-04T13:22:35;92951.41;;;21.31;33.30
48035;BME280;33812;46.480;6.834;2023-12-04T13:26:37;92967.06;;;21.24;33.51
48035;BME280;33812;46.480;6.834;2023-12-04T13:30:40;92951.09;;;21.29;33.24
48035;BME280;33812;46.480;6.834;2023-12-04T13:34:43;92951.72;;;21.23;33.28
48035;BME280;33812;46.480;6.834;2023-12-04T13:38:44;92953.22;;;21.24;33.43
48035;BME280;33812;46.480;6.834;2023-12-04T13:42:46;92961.22;;;21.32;33.54
48035;BME280;33812;46.480;6.834;2023-12-04T13:47:07;92943.59;;;21.29;33.12
48035;BME280;33812;46.480;6.834;2023-12-04T13:51:09;92938.06;;;21.29;33.32
48035;BME280;33812;46.480;6.834;2023-12-04T13:55:11;92949.72;;;21.24;33.31
48035;BME280;33812;46.480;6.834;2023-12-04T13:59:20;92955.53;;;21.26;33.26
48035;BME280;33812;46.480;6.834;2023-12-04T14:03:23;92952.47;;;21.24;33.21
48035;BME280;33812;46.480;6.834;2023-12-04T14:07:25;92950.00;;;21.26;33.25
48035;BME280;33812;46.480;6.834;2023-12-04T14:11:27;92946.03;;;21.27;33.24
48035;BME280;33812;46.480;6.834;2023-12-04T14:15:29;92933.75;;;21.28;33.32
48035;BME280;33812;46.480;6.834;2023-12-04T14:19:32;92920.69;;;21.29;33.28
48035;BME280;33812;46.480;6.834;2023-12-04T14:23:34;92927.16;;;21.25;33.44
48035;BME280;33812;46.480;6.834;2023-12-04T14:27:35;92928.06;;;21.22;33.39
48035;BME280;33812;46.480;6.834;2023-12-04T14:31:40;92930.22;;;21.28;33.55
48035;BME280;33812;46.480;6.834;2023-12-04T14:35:43;92923.59;;;21.25;33.19
48035;BME280;33812;46.480;6.834;2023-12-04T14:39:45;92911.16;;;21.30;33.41
48035;BME280;33812;46.480;6.834;2023-12-04T14:43:47;92905.50;;;21.24;33.36
48035;BME280;33812;46.480;6.834;2023-12-04T14:47:48;92907.94;;;21.31;33.28
48035;BME280;33812;46.480;6.834;2023-12-04T14:51:53;92903.34;;;21.28;33.28
48035;BME280;33812;46.480;6.834;2023-12-04T14:55:56;92898.59;;;21.29;33.32
48035;BME280;33812;46.480;6.834;2023-12-04T15:00:30;92894.44;;;21.24;33.30
48035;BME280;33812;46.480;6.834;2023-12-04T15:04:49;92907.03;;;21.25;33.27
48035;BME280;33812;46.480;6.834;2023-12-04T15:09:21;92905.03;;;21.25;33.32
48035;BME280;33812;46.480;6.834;2023-12-04T15:13:39;92900.88;;;21.21;33.32
48035;BME280;33812;46.480;6.834;2023-12-04T15:17:54;92878.78;;;21.11;33.20
48035;BME280;33812;46.480;6.834;2023-12-04T15:22:16;92901.63;;;21.12;33.08
48035;BME280;33812;46.480;6.834;2023-12-04T15:26:19;92882.00;;;21.10;33.14
48035;BME280;33812;46.480;6.834;2023-12-04T15:30:22;92879.09;;;21.04;33.16
48035;BME280;33812;46.480;6.834;2023-12-04T15:34:24;92874.63;;;21.07;33.25
48035;BME280;33812;46.480;6.834;2023-12-04T15:38:26;92886.00;;;20.99;33.33
48035;BME280;33812;46.480;6.834;2023-12-04T15:42:31;92882.31;;;21.02;33.23
48035;BME280;33812;46.480;6.834;2023-12-04T15:46:32;92875.53;;;21.04;33.53
48035;BME280;33812;46.480;6.834;2023-12-04T15:50:34;92858.66;;;21.01;33.32
48035;BME280;33812;46.480;6.834;2023-12-04T15:54:36;92855.28;;;20.97;33.40
48035;BME280;33812;46.480;6.834;2023-12-04T15:58:39;92849.13;;;20.93;33.30
48035;BME280;33812;46.480;6.834;2023-12-04T16:02:41;92858.63;;;20.92;33.44
48035;BME280;33812;46.480;6.834;2023-12-04T16:06:43;92875.41;;;20.98;33.56
48035;BME280;33812;46.480;6.834;2023-12-04T16:10:45;92871.56;;;20.95;33.59
48035;BME280;33812;46.480;6.834;2023-12-04T16:14:48;92859.13;;;21.00;33.39
48035;BME280;33812;46.480;6.834;2023-12-04T16:18:50;92886.00;;;20.99;33.35
48035;BME280;33812;46.480;6.834;2023-12-04T16:22:52;92837.03;;;21.00;33.49
48035;BME280;33812;46.480;6.834;2023-12-04T16:26:54;92851.16;;;21.02;33.17
48035;BME280;33812;46.480;6.834;2023-12-04T16:30:58;92858.38;;;20.99;33.24
48035;BME280;33812;46.480;6.834;2023-12-04T16:34:59;92837.97;;;21.06;33.07
48035;BME280;33812;46.480;6.834;2023-12-04T16:39:01;92830.72;;;21.09;32.94
48035;BME280;33812;46.480;6.834;2023-12-04T16:43:04;92817.53;;;21.22;32.66
48035;BME280;33812;46.480;6.834;2023-12-04T16:47:07;92813.25;;;21.02;33.83
48035;BME280;33812;46.480;6.834;2023-12-04T16:51:09;92814.63;;;20.98;33.72
48035;BME280;33812;46.480;6.834;2023-12-04T16:55:11;92827.66;;;20.97;33.50
48035;BME280;33812;46.480;6.834;2023-12-04T16:59:13;92818.72;;;20.93;33.21
48035;BME280;33812;46.480;6.834;2023-12-04T17:03:16;92792.81;;;20.90;33.28
48035;BME280;33812;46.480;6.834;2023-12-04T17:07:18;92800.50;;;21.05;33.35
48035;BME280;33812;46.480;6.834;2023-12-04T17:11:20;92808.34;;;20.97;33.79
48035;BME280;33812;46.480;6.834;2023-12-04T17:15:22;92802.03;;;20.97;34.88
48035;BME280;33812;46.480;6.834;2023-12-04T17:19:25;92781.94;;;21.06;34.96
48035;BME280;33812;46.480;6.834;2023-12-04T17:23:30;92785.16;;;20.95;34.11
48035;BME280;33812;46.480;6.834;2023-12-04T17:27:31;92800.03;;;20.78;33.83
48035;BME280;33812;46.480;6.834;2023-12-04T17:31:33;92777.47;;;20.80;34.50
48035;BME280;33812;46.480;6.834;2023-12-04T17:35:37;92797.25;;;20.78;34.76
48035;BME280;33812;46.480;6.834;2023-12-04T17:39:38;92774.72;;;20.80;34.81
48035;BME280;33812;46.480;6.834;2023-12-04T17:43:42;92764.88;;;20.79;34.97
48035;BME280;33812;46.480;6.834;2023-12-04T17:47:43;92750.00;;;20.76;34.90
48035;BME280;33812;46.480;6.834;2023-12-04T17:51:46;92762.56;;;20.77;34.21
48035;BME280;33812;46.480;6.834;2023-12-04T17:55:48;92766.56;;;20.76;34.86
48035;BME280;33812;46.480;6.834;2023-12-04T17:59:50;92783.88;;;20.77;34.64
48035;BME280;33812;46.480;6.834;2023-12-04T18:03:52;92783.16;;;20.76;34.38
48035;BME280;33812;46.480;6.834;2023-12-04T18:07:55;92781.31;;;20.73;34.43
48035;BME280;33812;46.480;6.834;2023-12-04T18:11:58;92774.09;;;20.76;34.76
48035;BME280;33812;46.480;6.834;2023-12-04T18:15:59;92793.25;;;20.80;35.26
48035;BME280;33812;46.480;6.834;2023-12-04T18:20:02;92791.41;;;20.86;35.51
48035;BME280;33812;46.480;6.834;2023-12-04T18:24:08;92799.09;;;20.82;35.60
48035;BME280;33812;46.480;6.834;2023-12-04T18:28:11;92798.16;;;20.75;36.05
48035;BME280;33812;46.480;6.834;2023-12-04T18:32:14;92787.75;;;20.89;35.50
48035;BME280;33812;46.480;6.834;2023-12-04T18:36:16;92784.34;;;20.75;36.34
48035;BME280;33812;46.480;6.834;2023-12-04T18:40:20;92775.47;;;20.90;36.52
48035;BME280;33812;46.480;6.834;2023-12-04T18:44:24;92776.84;;;20.85;36.54
48035;BME280;33812;46.480;6.834;2023-12-04T18:48:27;92757.06;;;20.77;37.15
48035;BME280;33812;46.480;6.834;2023-12-04T18:52:32;92773.94;;;20.80;37.49
48035;BME280;33812;46.480;6.834;2023-12-04T18:56:35;92761.34;;;20.88;39.12
48035;BME280;33812;46.480;6.834;2023-12-04T19:00:37;92772.84;;;20.86;39.54
48035;BME280;33812;46.480;6.834;2023-12-04T19:04:39;92753.06;;;20.88;39.79
48035;BME280;33812;46.480;6.834;2023-12-04T19:08:41;92766.25;;;20.93;39.33
48035;BME280;33812;46.480;6.834;2023-12-04T19:12:44;92783.16;;;20.95;35.92
48035;BME280;33812;46.480;6.834;2023-12-04T19:16:46;92779.25;;;18.87;29.09
48035;BME280;33812;46.480;6.834;2023-12-04T19:20:47;92774.72;;;20.01;28.06
48035;BME280;33812;46.480;6.834;2023-12-04T19:24:49;92778.16;;;19.51;30.38
48035;BME280;33812;46.480;6.834;2023-12-04T19:28:52;92772.16;;;19.75;30.72
48035;BME280;33812;46.480;6.834;2023-12-04T19:32:54;92768.38;;;19.91;30.90
48035;BME280;33812;46.480;6.834;2023-12-04T19:36:55;92769.19;;;20.01;39.00
48035;BME280;33812;46.480;6.834;2023-12-04T19:40:57;92782.88;;;20.14;35.14
48035;BME280;33812;46.480;6.834;2023-12-04T19:45:00;92791.00;;;20.18;35.66
48035;BME280;33812;46.480;6.834;2023-12-04T19:49:02;92773.25;;;20.19;43.61
48035;BME280;33812;46.480;6.834;2023-12-04T19:53:04;92790.13;;;20.31;38.63
48035;BME280;33812;46.480;6.834;2023-12-04T19:57:06;92784.47;;;20.34;39.34
48035;BME280;33812;46.480;6.834;2023-12-04T20:01:09;92810.06;;;20.35;39.26
48035;BME280;33812;46.480;6.834;2023-12-04T20:05:13;92798.13;;;20.38;39.55
48035;BME280;33812;46.480;6.834;2023-12-04T20:09:14;92808.69;;;20.39;39.48
48035;BME280;33812;46.480;6.834;2023-12-04T20:13:16;92791.38;;;20.39;39.92
48035;BME280;33812;46.480;6.834;2023-12-04T20:17:19;92806.72;;;20.40;40.21
48035;BME280;33812;46.480;6.834;2023-12-04T20:21:21;92802.88;;;20.37;40.02
48035;BME280;33812;46.480;6.834;2023-12-04T20:25:23;92807.31;;;20.35;40.47
48035;BME280;33812;46.480;6.834;2023-12-04T20:29:26;92813.13;;;20.37;40.42
48035;BME280;33812;46.480;6.834;2023-12-04T20:33:29;92808.34;;;20.28;40.57
48035;BME280;33812;46.480;6.834;2023-12-04T20:37:31;92806.97;;;20.23;40.60
48035;BME280;33812;46.480;6.834;2023-12-04T20:41:33;92812.47;;;20.23;40.62
48035;BME280;33812;46.480;6.834;2023-12-04T20:45:35;92813.72;;;20.22;40.65
48035;BME280;33812;46.480;6.834;2023-12-04T20:49:38;92808.66;;;20.21;40.57
48035;BME280;33812;46.480;6.834;2023-12-04T20:53:40;92799.59;;;20.20;40.28
48035;BME280;33812;46.480;6.834;2023-12-04T20:57:42;92806.50;;;20.25;40.19
48035;BME280;33812;46.480;6.834;2023-12-04T21:01:48;92823.19;;;20.21;39.92
48035;BME280;33812;46.480;6.834;2023-12-04T21:05:51;92821.06;;;20.25;39.66
48035;BME280;33812;46.480;6.834;2023-12-04T21:09:53;92819.56;;;20.34;39.96
48035;BME280;33812;46.480;6.834;2023-12-04T21:13:55;92822.31;;;20.34;39.12
48035;BME280;33812;46.480;6.834;2023-12-04T21:17:57;92816.50;;;20.32;38.91
48035;BME280;33812;46.480;6.834;2023-12-04T21:22:00;92824.16;;;20.37;38.44
48035;BME280;33812;46.480;6.834;2023-12-04T21:26:02;92841.97;;;20.36;38.69